createdAt,value
2022-10-13T00:05:01.555Z,3.20
2022-10-13T00:10:05.088Z,3.25
2022-10-13T00:15:09.427Z,3.50
2022-10-13T00:20:13.837Z,3.87
2022-10-13T00:25:16.713Z,3.33
2022-10-13T00:30:19.510Z,3.90
2022-10-13T00:35:23.565Z,3.53
2022-10-13T00:40:26.350Z,3.53
2022-10-13T00:45:30.763Z,4.20
2022-10-13T00:50:38.918Z,4.13
2022-10-13T00:55:44.732Z,4.20
2022-10-13T01:00:50.630Z,3.90
2022-10-13T01:05:58.948Z,4.28
2022-10-13T01:11:13.352Z,4.60
2022-10-13T01:16:26.429Z,3.95
2022-10-13T01:21:37.583Z,4.35
2022-10-13T01:27:15.882Z,4.20
2022-10-13T01:32:27.957Z,3.63
2022-10-13T01:37:34.764Z,4.00
2022-10-13T01:42:44.296Z,4.45
2022-10-13T01:47:49.326Z,4.53
2022-10-13T01:52:53.214Z,4.50
2022-10-13T01:57:56.347Z,3.20
2022-10-13T02:03:08.451Z,2.63
2022-10-13T02:08:18.314Z,4.30
2022-10-13T02:13:24.977Z,4.88
2022-10-13T02:18:32.354Z,3.70
2022-10-13T02:23:35.558Z,4.60
2022-10-13T02:28:39.220Z,4.28
2022-10-13T02:33:43.351Z,2.92
2022-10-13T02:38:46.053Z,3.50
2022-10-13T02:43:48.773Z,4.25
2022-10-13T02:48:53.416Z,3.08
2022-10-13T02:53:56.132Z,4.80
2022-10-13T02:58:58.830Z,4.45
2022-10-13T03:04:02.877Z,4.47
2022-10-13T03:09:05.816Z,5.43
2022-10-13T03:14:08.505Z,4.67
2022-10-13T03:19:12.796Z,4.50
2022-10-13T03:24:15.510Z,4.85
2022-10-13T03:29:19.192Z,5.63
2022-10-13T03:34:23.290Z,5.47
2022-10-13T03:39:26.275Z,5.53
2022-10-13T03:44:29.108Z,5.57
2022-10-13T03:49:33.312Z,5.75
2022-10-13T03:54:36.088Z,5.70
2022-10-13T03:59:41.121Z,5.70
2022-10-13T04:04:45.220Z,5.60
2022-10-13T04:09:47.946Z,5.30
2022-10-13T04:14:50.684Z,4.70
2022-10-13T04:19:54.790Z,5.10
2022-10-13T04:24:57.520Z,4.78
2022-10-13T04:30:00.305Z,5.80
2022-10-13T04:35:04.935Z,5.40
2022-10-13T04:40:08.564Z,5.03
2022-10-13T04:45:11.825Z,5.70
2022-10-13T04:50:15.874Z,5.10
2022-10-13T04:55:18.798Z,5.53
2022-10-13T05:00:21.771Z,5.75
2022-10-13T05:05:25.920Z,5.30
2022-10-13T05:10:32.583Z,5.37
2022-10-13T05:15:40.025Z,5.40
2022-10-13T05:20:44.188Z,5.72
2022-10-13T05:25:46.863Z,5.40
2022-10-13T05:30:49.542Z,5.13
2022-10-13T05:35:53.643Z,5.82
2022-10-13T05:40:56.356Z,5.73
2022-10-13T05:45:59.429Z,5.63
2022-10-13T05:51:07.500Z,5.82
2022-10-13T05:56:15.119Z,5.85
2022-10-13T06:01:22.717Z,5.10
2022-10-13T06:06:30.575Z,6.10
2022-10-13T06:11:34.251Z,9.30
2022-10-13T06:16:37.564Z,14.20
2022-10-13T06:21:41.608Z,7.80
2022-10-13T06:26:44.504Z,6.65
2022-10-13T06:31:47.780Z,6.30
2022-10-13T06:36:51.839Z,7.03
2022-10-13T06:41:55.362Z,7.25
2022-10-13T06:46:58.067Z,6.78
2022-10-13T06:52:02.159Z,6.00
2022-10-13T06:57:06.915Z,7.13
2022-10-13T07:02:10.242Z,6.90
2022-10-13T07:07:14.608Z,7.33
2022-10-13T07:12:18.043Z,7.05
2022-10-13T07:17:21.399Z,7.18
2022-10-13T07:22:25.865Z,7.77
2022-10-13T07:27:29.039Z,7.37
2022-10-13T07:32:32.432Z,7.78
2022-10-13T07:37:36.624Z,7.45
2022-10-13T07:42:39.340Z,6.63
2022-10-13T07:47:42.034Z,7.45
2022-10-13T07:52:46.112Z,8.05
2022-10-13T07:57:48.794Z,8.07
2022-10-13T08:02:51.823Z,6.85
2022-10-13T08:07:58.354Z,8.38
2022-10-13T08:13:01.446Z,8.30
2022-10-13T08:18:04.160Z,8.17
2022-10-13T08:23:08.240Z,8.10
2022-10-13T08:28:18.959Z,8.68
2022-10-13T08:33:21.997Z,7.93
2022-10-13T08:38:26.092Z,8.95
2022-10-13T08:43:29.249Z,8.20
2022-10-13T08:48:36.208Z,7.60
2022-10-13T08:53:43.909Z,8.10
2022-10-13T08:58:47.721Z,8.48
2022-10-13T09:03:54.396Z,8.50
2022-10-13T09:09:00.843Z,7.47
2022-10-13T09:14:06.117Z,8.25
2022-10-13T09:19:20.923Z,8.02
2022-10-13T09:24:27.827Z,7.97
2022-10-13T09:29:30.589Z,8.23
2022-10-13T09:34:34.350Z,7.15
2022-10-13T09:39:38.475Z,7.50
2022-10-13T09:44:41.807Z,7.05
2022-10-13T09:49:45.069Z,7.70
2022-10-13T09:54:51.118Z,6.87
2022-10-13T09:59:59.892Z,7.77
2022-10-13T10:05:07.560Z,7.72
2022-10-13T10:10:23.928Z,8.00
2022-10-13T10:15:34.946Z,7.87
2022-10-13T10:20:53.901Z,7.75
2022-10-13T10:26:01.828Z,7.25
2022-10-13T10:31:13.140Z,8.30
2022-10-13T10:36:20.598Z,7.88
2022-10-13T10:41:39.767Z,9.10
2022-10-13T10:46:47.616Z,8.13
2022-10-13T10:51:50.966Z,8.83
2022-10-13T10:56:59.468Z,8.18
2022-10-13T11:02:17.242Z,9.30
2022-10-13T11:07:53.198Z,8.60
2022-10-13T11:13:27.486Z,8.88
2022-10-13T11:19:09.410Z,8.65
2022-10-13T11:24:46.804Z,8.50
2022-10-13T11:29:56.556Z,7.75
2022-10-13T11:35:01.613Z,8.15
2022-10-13T11:40:17.554Z,8.17
2022-10-13T11:45:42.757Z,8.03
2022-10-13T11:50:54.964Z,8.43
2022-10-13T11:55:59.230Z,7.57
2022-10-13T12:01:06.420Z,8.17
2022-10-13T12:06:33.708Z,7.78
2022-10-13T12:11:38.795Z,6.85
2022-10-13T12:16:53.668Z,7.13
2022-10-13T12:21:58.625Z,7.43
2022-10-13T12:27:11.820Z,7.38
2022-10-13T12:32:24.439Z,7.03
2022-10-13T12:37:30.961Z,7.57
2022-10-13T12:42:36.974Z,7.20
2022-10-13T12:47:48.931Z,7.47
2022-10-13T12:52:52.755Z,6.80
2022-10-13T12:57:55.903Z,7.07
2022-10-13T13:03:01.663Z,6.65
2022-10-13T13:08:05.828Z,6.90
2022-10-13T13:13:15.955Z,7.10
2022-10-13T13:18:42.211Z,7.25
2022-10-13T13:23:51.041Z,6.23
2022-10-13T13:28:57.941Z,6.47
2022-10-13T13:34:02.059Z,6.43
2022-10-13T13:39:05.061Z,7.35
2022-10-13T13:44:07.861Z,6.93
2022-10-13T13:49:12.691Z,7.05
2022-10-13T13:54:15.393Z,6.80
2022-10-13T13:59:18.100Z,7.03
2022-10-13T14:04:22.532Z,7.00
2022-10-13T14:09:25.223Z,6.85
2022-10-13T14:14:28.057Z,6.83
2022-10-13T14:19:32.475Z,6.80
2022-10-13T14:24:35.440Z,6.80
2022-10-13T14:29:38.357Z,7.05
2022-10-13T14:34:42.453Z,6.70
2022-10-13T14:39:45.240Z,7.50
2022-10-13T14:44:48.085Z,7.43
2022-10-13T14:49:52.163Z,7.77
2022-10-13T14:54:54.873Z,6.82
2022-10-13T15:00:01.659Z,7.00
2022-10-13T15:05:07.579Z,6.67
2022-10-13T15:10:10.577Z,7.03
2022-10-13T15:15:13.754Z,7.53
2022-10-13T15:20:17.974Z,7.40
2022-10-13T15:25:20.668Z,7.03
2022-10-13T15:30:23.415Z,7.22
2022-10-13T15:35:30.590Z,7.30
2022-10-13T15:40:33.607Z,7.47
2022-10-13T15:45:36.850Z,7.80
2022-10-13T15:50:41.439Z,8.15
2022-10-13T15:55:44.202Z,7.63
2022-10-13T16:00:47.037Z,7.97
2022-10-13T16:05:51.182Z,7.30
2022-10-13T16:10:53.948Z,7.00
2022-10-13T16:16:00.567Z,7.03
2022-10-13T16:21:13.336Z,8.30
2022-10-13T16:26:20.272Z,7.22
2022-10-13T16:31:23.553Z,8.10
2022-10-13T16:36:27.750Z,7.65
2022-10-13T16:41:30.543Z,7.65
2022-10-13T16:46:34.191Z,7.47
2022-10-13T16:51:38.606Z,8.37
2022-10-13T16:56:41.430Z,8.55
2022-10-13T17:01:45.181Z,8.35
2022-10-13T17:06:49.353Z,8.20
2022-10-13T17:11:52.067Z,8.02
2022-10-13T17:16:57.710Z,8.65
2022-10-13T17:22:02.552Z,8.77
2022-10-13T17:27:05.430Z,9.27
2022-10-13T17:32:08.219Z,8.80
2022-10-13T17:37:12.463Z,8.50
2022-10-13T17:42:15.493Z,9.10
2022-10-13T17:47:18.613Z,8.82
2022-10-13T17:52:22.900Z,9.43
2022-10-13T17:57:25.692Z,8.50
2022-10-13T18:02:28.529Z,9.57
2022-10-13T18:07:32.742Z,9.60
2022-10-13T18:12:35.570Z,9.23
2022-10-13T18:17:38.351Z,9.73
2022-10-13T18:22:42.453Z,8.45
2022-10-13T18:27:45.188Z,8.10
2022-10-13T18:32:47.939Z,9.23
2022-10-13T18:37:52.855Z,9.85
2022-10-13T18:42:56.207Z,8.32
2022-10-13T18:47:58.909Z,8.97
2022-10-13T18:53:03.069Z,8.73
2022-10-13T18:58:05.789Z,9.32
2022-10-13T19:03:08.507Z,9.90
2022-10-13T19:08:12.622Z,10.13
2022-10-13T19:13:15.391Z,9.45
2022-10-13T19:18:18.115Z,9.53
2022-10-13T19:23:22.495Z,8.70
2022-10-13T19:28:25.603Z,8.90
2022-10-13T19:33:28.367Z,9.30
2022-10-13T19:38:32.499Z,9.13
2022-10-13T19:43:35.495Z,9.20
2022-10-13T19:48:38.302Z,8.95
2022-10-13T19:53:42.799Z,9.50
2022-10-13T19:58:45.617Z,8.82
2022-10-13T20:03:48.730Z,8.50
2022-10-13T20:08:52.824Z,9.17
2022-10-13T20:13:55.539Z,9.00
2022-10-13T20:19:00.767Z,8.55
2022-10-13T20:24:04.973Z,8.80
2022-10-13T20:29:07.794Z,8.93
2022-10-13T20:34:11.432Z,8.25
2022-10-13T20:39:15.606Z,8.20
2022-10-13T20:44:18.335Z,8.40
2022-10-13T20:49:21.033Z,8.73
2022-10-13T20:54:25.110Z,8.60
2022-10-13T20:59:28.025Z,8.47
2022-10-13T21:04:31.065Z,8.70
2022-10-13T21:09:35.446Z,8.85
2022-10-13T21:14:38.203Z,9.00
2022-10-13T21:19:40.897Z,7.97
2022-10-13T21:24:45.022Z,8.35
2022-10-13T21:29:47.719Z,8.23
2022-10-13T21:34:50.515Z,7.97
2022-10-13T21:39:54.812Z,7.80
2022-10-13T21:44:57.582Z,8.20
2022-10-13T21:50:00.684Z,8.43
2022-10-13T21:55:05.259Z,8.53
2022-10-13T22:00:10.048Z,8.07
2022-10-13T22:05:12.900Z,8.13
2022-10-13T22:10:17.466Z,8.83
2022-10-13T22:15:20.195Z,9.30
2022-10-13T22:20:22.880Z,8.88
2022-10-13T22:25:26.981Z,8.93
2022-10-13T22:30:29.814Z,8.90
2022-10-13T22:35:35.394Z,7.88
2022-10-13T22:40:39.476Z,9.10
2022-10-13T22:45:50.841Z,9.07
2022-10-13T22:50:53.553Z,8.63
2022-10-13T22:55:57.614Z,9.63
2022-10-13T23:01:06.092Z,9.33
2022-10-13T23:06:13.499Z,9.40
2022-10-13T23:11:18.630Z,8.25
2022-10-13T23:16:23.233Z,9.80
2022-10-13T23:21:29.246Z,9.35
2022-10-13T23:26:34.438Z,8.68
2022-10-13T23:31:37.171Z,8.90
2022-10-13T23:36:39.959Z,9.17
2022-10-13T23:41:44.238Z,9.18
2022-10-13T23:46:47.022Z,9.90
2022-10-13T23:51:49.770Z,9.10
2022-10-13T23:56:53.848Z,9.82
